createdAt,value
2019-04-03T00:00:56.739Z,58.29
2019-04-03T00:01:56.744Z,58.12
2019-04-03T00:02:56.708Z,58.40
2019-04-03T00:03:56.700Z,58.81
2019-04-03T00:04:56.746Z,59.53
2019-04-03T00:05:56.695Z,59.42
2019-04-03T00:06:56.742Z,59.32
2019-04-03T00:07:56.694Z,58.91
2019-04-03T00:08:56.646Z,59.01
2019-04-03T00:09:56.649Z,58.70
2019-04-03T00:10:56.625Z,59.32
2019-04-03T00:11:56.622Z,57.99
2019-04-03T00:12:56.605Z,58.20
2019-04-03T00:13:56.587Z,58.20
2019-04-03T00:14:56.589Z,58.20
2019-04-03T00:15:56.568Z,58.81
2019-04-03T00:16:56.558Z,59.32
2019-04-03T00:17:56.647Z,59.01
2019-04-03T00:18:56.534Z,58.81
2019-04-03T00:19:56.521Z,58.61
2019-04-03T00:20:56.506Z,59.01
2019-04-03T00:21:56.496Z,59.42
2019-04-03T00:22:56.502Z,58.81
2019-04-03T00:23:56.484Z,59.42
2019-04-03T00:24:56.474Z,58.61
2019-04-03T00:25:56.453Z,58.81
2019-04-03T00:26:56.441Z,59.01
2019-04-03T00:27:56.498Z,59.22
2019-04-03T00:28:56.453Z,59.53
2019-04-03T00:29:56.410Z,59.63
2019-04-03T00:30:56.477Z,60.03
2019-04-03T00:31:56.383Z,60.24
2019-04-03T00:32:56.391Z,60.03
2019-04-03T00:33:56.365Z,60.03
2019-04-03T00:34:56.357Z,60.14
2019-04-03T00:35:56.346Z,60.03
2019-04-03T00:36:56.430Z,60.35
2019-04-03T00:37:56.334Z,60.14
2019-04-03T00:38:56.308Z,60.35
2019-04-03T00:39:56.351Z,59.73
2019-04-03T00:40:56.292Z,60.24
2019-04-03T00:41:56.276Z,60.24
2019-04-03T00:42:56.332Z,59.73
2019-04-03T00:43:56.250Z,59.73
2019-04-03T00:44:56.235Z,60.14
2019-04-03T00:45:56.231Z,60.35
2019-04-03T00:46:56.234Z,60.35
2019-04-03T00:47:56.226Z,60.24
2019-04-03T00:48:56.312Z,60.37
2019-04-03T00:49:57.061Z,60.27
2019-04-03T00:50:57.316Z,59.83
2019-04-03T00:51:57.613Z,59.96
2019-04-03T00:52:57.437Z,60.27
2019-04-03T00:53:57.969Z,61.19
2019-04-03T00:54:56.625Z,61.29
2019-04-03T00:55:56.493Z,61.19
2019-04-03T00:56:56.489Z,61.19
2019-04-03T00:57:56.846Z,60.99
2019-04-03T00:58:56.080Z,61.29
2019-04-03T00:59:56.423Z,60.78
2019-04-03T01:00:56.334Z,60.40
2019-04-03T01:01:56.506Z,60.78
2019-04-03T01:02:58.157Z,60.99
2019-04-03T01:03:58.115Z,61.40
2019-04-03T01:04:57.997Z,61.50
2019-04-03T01:05:56.698Z,60.99
2019-04-03T01:06:56.800Z,61.40
2019-04-03T01:07:55.987Z,60.88
2019-04-03T01:08:55.985Z,61.40
2019-04-03T01:09:55.965Z,61.70
2019-04-03T01:10:55.957Z,61.50
2019-04-03T01:11:55.930Z,61.80
2019-04-03T01:12:55.962Z,61.09
2019-04-03T01:13:55.943Z,61.09
2019-04-03T01:14:56.039Z,61.29
2019-04-03T01:15:55.937Z,61.70
2019-04-03T01:16:55.879Z,62.21
2019-04-03T01:17:55.865Z,61.70
2019-04-03T01:18:55.869Z,61.91
2019-04-03T01:19:55.845Z,61.60
2019-04-03T01:20:55.828Z,61.70
2019-04-03T01:21:55.822Z,61.70
2019-04-03T01:22:55.807Z,61.80
2019-04-03T01:23:55.854Z,62.01
2019-04-03T01:24:55.788Z,61.40
2019-04-03T01:25:56.100Z,61.80
2019-04-03T01:26:55.769Z,62.01
2019-04-03T01:27:55.760Z,62.11
2019-04-03T01:28:56.049Z,61.91
2019-04-03T01:29:55.727Z,62.32
2019-04-03T01:30:55.716Z,61.50
2019-04-03T01:31:55.788Z,61.63
2019-04-03T01:32:55.707Z,62.24
2019-04-03T01:33:55.710Z,62.32
2019-04-03T01:34:55.758Z,61.60
2019-04-03T01:35:55.660Z,61.40
2019-04-03T01:36:55.669Z,62.42
2019-04-03T01:37:55.642Z,62.01
2019-04-03T01:38:55.771Z,61.80
2019-04-03T01:39:55.618Z,61.80
2019-04-03T01:40:55.609Z,62.01
2019-04-03T01:41:55.623Z,61.91
2019-04-03T01:42:55.586Z,61.91
2019-04-03T01:43:55.673Z,62.14
2019-04-03T01:44:56.084Z,61.73
2019-04-03T01:45:56.945Z,61.63
2019-04-03T01:46:57.311Z,61.83
2019-04-03T01:47:57.354Z,61.63
2019-04-03T01:48:58.026Z,62.24
2019-04-03T01:49:56.806Z,62.14
2019-04-03T01:50:55.505Z,61.96
2019-04-03T01:51:55.488Z,61.96
2019-04-03T01:52:55.481Z,62.07
2019-04-03T01:53:55.470Z,62.48
2019-04-03T01:54:55.511Z,62.88
2019-04-03T01:55:55.450Z,62.68
2019-04-03T01:56:55.426Z,62.58
2019-04-03T01:57:55.413Z,62.68
2019-04-03T01:58:55.401Z,62.78
2019-04-03T01:59:55.409Z,62.92
2019-04-03T02:00:55.378Z,63.12
2019-04-03T02:01:55.372Z,63.32
2019-04-03T02:02:55.360Z,63.12
2019-04-03T02:03:55.352Z,62.81
2019-04-03T02:04:55.495Z,63.02
2019-04-03T02:05:55.327Z,62.81
2019-04-03T02:06:55.406Z,62.84
2019-04-03T02:07:55.307Z,63.56
2019-04-03T02:08:55.286Z,63.56
2019-04-03T02:09:55.495Z,63.66
2019-04-03T02:10:55.264Z,63.56
2019-04-03T02:11:55.252Z,63.97
2019-04-03T02:12:55.259Z,63.76
2019-04-03T02:13:55.231Z,63.76
2019-04-03T02:14:55.235Z,63.76
2019-04-03T02:15:55.217Z,64.20
2019-04-03T02:16:55.197Z,64.61
2019-04-03T02:17:55.320Z,64.41
2019-04-03T02:18:55.723Z,64.00
2019-04-03T02:19:56.379Z,64.61
2019-04-03T02:20:57.244Z,65.44
2019-04-03T02:21:55.144Z,65.03
2019-04-03T02:22:55.145Z,64.92
2019-04-03T02:23:55.119Z,65.54
2019-04-03T02:24:55.128Z,65.23
2019-04-03T02:25:55.093Z,65.12
2019-04-03T02:26:55.085Z,65.12
2019-04-03T02:27:55.072Z,65.33
2019-04-03T02:28:55.224Z,65.54
2019-04-03T02:29:55.070Z,65.12
2019-04-03T02:30:55.075Z,65.33
2019-04-03T02:31:55.027Z,65.33
2019-04-03T02:32:56.664Z,65.33
2019-04-03T02:33:55.010Z,65.23
2019-04-03T02:34:55.011Z,65.23
2019-04-03T02:35:55.467Z,65.16
2019-04-03T02:36:54.974Z,65.23
2019-04-03T02:37:54.964Z,65.64
2019-04-03T02:38:54.949Z,66.08
2019-04-03T02:39:59.115Z,65.64
2019-04-03T02:40:56.048Z,65.84
2019-04-03T02:41:55.042Z,65.88
2019-04-03T02:42:54.925Z,66.19
2019-04-03T02:43:55.152Z,65.88
2019-04-03T02:44:55.105Z,65.77
2019-04-03T02:45:56.408Z,65.98
2019-04-03T02:46:54.864Z,66.08
2019-04-03T02:47:54.861Z,66.08
2019-04-03T02:48:54.898Z,66.60
2019-04-03T02:49:54.836Z,66.39
2019-04-03T02:50:54.842Z,66.28
2019-04-03T02:51:54.806Z,66.49
2019-04-03T02:52:58.012Z,66.39
2019-04-03T02:53:54.792Z,66.39
2019-04-03T02:54:54.771Z,66.19
2019-04-03T02:55:54.778Z,66.60
2019-04-03T02:56:54.751Z,66.63
2019-04-03T02:57:54.736Z,66.73
2019-04-03T02:58:55.177Z,66.42
2019-04-03T02:59:58.267Z,66.73
2019-04-03T03:00:54.740Z,66.63
2019-04-03T03:01:54.912Z,66.52
2019-04-03T03:02:54.968Z,66.63
2019-04-03T03:03:54.668Z,66.31
2019-04-03T03:04:55.627Z,67.14
2019-04-03T03:05:54.680Z,67.65
2019-04-03T03:06:54.909Z,67.35
2019-04-03T03:07:54.620Z,67.55
2019-04-03T03:08:54.608Z,67.68
2019-04-03T03:09:54.846Z,67.44
2019-04-03T03:10:54.612Z,67.58
2019-04-03T03:11:56.108Z,67.79
2019-04-03T03:12:54.566Z,68.30
2019-04-03T03:13:54.565Z,67.99
2019-04-03T03:14:54.555Z,67.99
2019-04-03T03:15:54.583Z,68.10
2019-04-03T03:16:54.518Z,68.10
2019-04-03T03:17:55.892Z,68.30
2019-04-03T03:18:54.496Z,68.30
2019-04-03T03:19:54.774Z,68.40
2019-04-03T03:20:54.497Z,68.51
2019-04-03T03:21:54.473Z,68.61
2019-04-03T03:22:54.517Z,68.40
2019-04-03T03:23:56.204Z,68.81
2019-04-03T03:24:54.428Z,68.71
2019-04-03T03:25:54.594Z,68.71
2019-04-03T03:26:54.410Z,68.71
2019-04-03T03:27:54.405Z,68.71
2019-04-03T03:28:54.381Z,68.61
2019-04-03T03:29:54.478Z,68.51
2019-04-03T03:30:59.844Z,68.61
2019-04-03T03:32:07.913Z,68.71
2019-04-03T03:33:22.291Z,69.02
2019-04-03T03:34:00.518Z,68.81
2019-04-03T03:35:07.624Z,68.91
2019-04-03T03:35:55.952Z,68.91
2019-04-03T03:36:58.697Z,68.71
2019-04-03T03:37:55.378Z,69.02
2019-04-03T03:38:54.278Z,68.91
2019-04-03T03:39:54.426Z,68.91
2019-04-03T03:40:54.417Z,69.02
2019-04-03T03:41:57.509Z,68.91
2019-04-03T03:42:54.232Z,68.91
2019-04-03T03:43:54.359Z,68.91
2019-04-03T03:44:54.306Z,69.02
2019-04-03T03:45:54.202Z,69.12
2019-04-03T03:46:54.203Z,68.71
2019-04-03T03:47:54.605Z,68.91
2019-04-03T03:48:54.159Z,68.81
2019-04-03T03:49:54.266Z,68.81
2019-04-03T03:50:57.275Z,68.71
2019-04-03T03:51:54.146Z,69.94
2019-04-03T03:52:54.115Z,68.61
2019-04-03T03:53:54.130Z,69.87
2019-04-03T03:54:54.087Z,69.84
2019-04-03T03:55:57.506Z,69.26
2019-04-03T03:56:54.090Z,69.26
2019-04-03T03:57:54.060Z,69.26
2019-04-03T03:58:54.092Z,69.26
2019-04-03T03:59:54.053Z,69.56
2019-04-03T04:00:57.898Z,69.36
2019-04-03T04:01:55.132Z,68.54
2019-04-03T04:02:54.117Z,69.67
2019-04-03T04:03:53.982Z,69.98
2019-04-03T04:04:53.973Z,69.67
2019-04-03T04:05:56.023Z,69.56
2019-04-03T04:06:54.039Z,69.26
2019-04-03T04:07:53.944Z,69.26
2019-04-03T04:08:53.946Z,69.36
2019-04-03T04:09:54.135Z,69.56
2019-04-03T04:10:58.097Z,69.26
2019-04-03T04:11:54.921Z,69.56
2019-04-03T04:12:53.897Z,69.15
2019-04-03T04:13:53.891Z,68.74
2019-04-03T04:14:56.434Z,69.26
2019-04-03T04:15:54.151Z,68.43
2019-04-03T04:16:53.860Z,69.15
2019-04-03T04:17:53.850Z,69.15
2019-04-03T04:18:57.269Z,68.95
2019-04-03T04:19:54.177Z,68.95
2019-04-03T04:20:53.843Z,69.26
2019-04-03T04:21:54.023Z,69.26
2019-04-03T04:22:54.079Z,69.77
2019-04-03T04:23:55.958Z,69.36
2019-04-03T04:24:53.749Z,69.15
2019-04-03T04:25:53.739Z,69.05
2019-04-03T04:26:53.747Z,68.95
2019-04-03T04:27:53.719Z,69.46
2019-04-03T04:28:53.704Z,69.77
2019-04-03T04:29:53.693Z,69.98
2019-04-03T04:30:53.679Z,69.87
2019-04-03T04:31:53.690Z,69.36
2019-04-03T04:32:53.658Z,70.18
2019-04-03T04:33:53.655Z,69.64
2019-04-03T04:34:53.640Z,69.43
2019-04-03T04:35:53.629Z,69.32
2019-04-03T04:36:55.334Z,69.64
2019-04-03T04:37:55.298Z,69.43
2019-04-03T04:38:53.615Z,69.36
2019-04-03T04:39:53.582Z,69.77
2019-04-03T04:40:53.784Z,69.36
2019-04-03T04:41:53.658Z,69.15
2019-04-03T04:42:53.579Z,69.43
2019-04-03T04:43:53.533Z,69.12
2019-04-03T04:44:53.566Z,69.64
2019-04-03T04:45:53.514Z,69.94
2019-04-03T04:46:53.510Z,69.64
2019-04-03T04:47:53.515Z,69.43
2019-04-03T04:48:53.528Z,70.04
2019-04-03T04:49:54.210Z,69.12
2019-04-03T04:50:55.161Z,68.71
2019-04-03T04:51:56.531Z,69.23
2019-04-03T04:52:53.520Z,69.02
2019-04-03T04:53:53.444Z,69.23
2019-04-03T04:54:53.409Z,69.23
2019-04-03T04:55:53.403Z,69.23
2019-04-03T04:56:53.386Z,69.64
2019-04-03T04:57:53.394Z,69.53
2019-04-03T04:58:53.575Z,69.23
2019-04-03T04:59:53.353Z,69.12
2019-04-03T05:00:53.873Z,69.23
2019-04-03T05:01:53.335Z,70.36
2019-04-03T05:02:53.376Z,69.53
2019-04-03T05:03:53.932Z,69.53
2019-04-03T05:04:55.296Z,69.02
2019-04-03T05:05:53.526Z,68.61
2019-04-03T05:06:53.279Z,69.15
2019-04-03T05:07:53.760Z,69.32
2019-04-03T05:08:53.254Z,69.12
2019-04-03T05:09:53.242Z,69.12
2019-04-03T05:10:53.224Z,69.23
2019-04-03T05:11:53.219Z,69.43
2019-04-03T05:12:53.238Z,69.23
2019-04-03T05:13:53.416Z,69.36
2019-04-03T05:14:53.306Z,69.53
2019-04-03T05:15:54.097Z,69.36
2019-04-03T05:16:54.115Z,69.53
2019-04-03T05:17:53.171Z,69.56
2019-04-03T05:18:53.142Z,69.32
2019-04-03T05:19:53.128Z,69.36
2019-04-03T05:20:53.118Z,69.77
2019-04-03T05:21:53.502Z,69.02
2019-04-03T05:22:55.415Z,69.84
2019-04-03T05:23:55.748Z,69.32
2019-04-03T05:24:53.074Z,69.43
2019-04-03T05:25:53.236Z,69.23
2019-04-03T05:26:53.067Z,68.71
2019-04-03T05:27:53.040Z,69.53
2019-04-03T05:28:57.088Z,68.81
2019-04-03T05:29:53.026Z,69.02
2019-04-03T05:30:53.006Z,69.64
2019-04-03T05:31:52.994Z,68.51
2019-04-03T05:32:52.983Z,69.32
2019-04-03T05:33:53.182Z,68.78
2019-04-03T05:34:52.961Z,68.68
2019-04-03T05:35:52.959Z,68.78
2019-04-03T05:36:52.930Z,68.88
2019-04-03T05:37:52.925Z,68.78
2019-04-03T05:38:53.913Z,69.50
2019-04-03T05:39:54.670Z,68.68
2019-04-03T05:40:52.899Z,68.88
2019-04-03T05:41:52.883Z,68.88
2019-04-03T05:42:52.874Z,69.06
2019-04-03T05:43:52.874Z,68.65
2019-04-03T05:44:52.866Z,68.48
2019-04-03T05:45:52.832Z,68.85
2019-04-03T05:46:52.822Z,68.75
2019-04-03T05:47:52.816Z,68.75
2019-04-03T05:48:52.828Z,68.65
2019-04-03T05:49:55.588Z,68.65
2019-04-03T05:50:52.781Z,68.34
2019-04-03T05:51:52.766Z,68.44
2019-04-03T05:52:52.754Z,68.65
2019-04-03T05:53:54.167Z,68.54
2019-04-03T05:54:52.960Z,68.85
2019-04-03T05:55:52.942Z,68.54
2019-04-03T05:56:52.705Z,68.34
2019-04-03T05:57:52.902Z,68.54
2019-04-03T05:58:56.694Z,67.93
2019-04-03T05:59:59.936Z,68.44
2019-04-03T06:01:04.405Z,67.90
2019-04-03T06:01:53.662Z,68.10
2019-04-03T06:02:53.661Z,68.41
2019-04-03T06:03:52.681Z,68.30
2019-04-03T06:04:52.945Z,67.90
2019-04-03T06:05:52.613Z,68.21
2019-04-03T06:06:52.601Z,68.21
2019-04-03T06:07:52.704Z,68.10
2019-04-03T06:08:52.991Z,68.00
2019-04-03T06:09:53.862Z,68.10
2019-04-03T06:10:52.556Z,68.21
2019-04-03T06:11:52.866Z,68.30
2019-04-03T06:12:52.657Z,67.38
2019-04-03T06:13:52.798Z,67.69
2019-04-03T06:14:52.507Z,68.21
2019-04-03T06:15:52.986Z,66.56
2019-04-03T06:16:55.513Z,66.46
2019-04-03T06:17:55.105Z,66.53
2019-04-03T06:18:52.500Z,66.67
2019-04-03T06:19:52.456Z,66.74
2019-04-03T06:20:52.439Z,66.53
2019-04-03T06:21:52.426Z,68.07
2019-04-03T06:22:52.445Z,66.43
2019-04-03T06:23:53.018Z,66.50
2019-04-03T06:24:52.407Z,66.50
2019-04-03T06:25:52.382Z,66.63
2019-04-03T06:26:52.379Z,66.81
2019-04-03T06:27:52.623Z,66.09
2019-04-03T06:28:52.370Z,66.30
2019-04-03T06:29:55.085Z,65.78
2019-04-03T06:30:52.326Z,66.19
2019-04-03T06:31:52.320Z,65.24
2019-04-03T06:32:54.743Z,65.75
2019-04-03T06:33:52.311Z,65.14
2019-04-03T06:34:52.280Z,65.04
2019-04-03T06:35:52.275Z,64.32
2019-04-03T06:36:52.480Z,65.14
2019-04-03T06:37:53.145Z,65.34
2019-04-03T06:38:52.253Z,65.14
2019-04-03T06:39:52.236Z,65.42
2019-04-03T06:40:52.220Z,64.09
2019-04-03T06:41:52.351Z,64.90
2019-04-03T06:42:52.204Z,64.29
2019-04-03T06:43:54.045Z,63.91
2019-04-03T06:44:53.612Z,63.57
2019-04-03T06:45:52.173Z,63.68
2019-04-03T06:46:54.062Z,63.57
2019-04-03T06:47:52.301Z,62.21
2019-04-03T06:48:55.061Z,62.76
2019-04-03T06:49:52.112Z,62.96
2019-04-03T06:50:52.106Z,62.96
2019-04-03T06:51:52.093Z,63.65
2019-04-03T06:52:53.049Z,62.83
2019-04-03T06:53:52.102Z,62.42
2019-04-03T06:54:52.062Z,63.34
2019-04-03T06:55:52.217Z,63.34
2019-04-03T06:56:53.003Z,62.70
2019-04-03T06:57:52.026Z,62.08
2019-04-03T06:58:52.024Z,61.88
2019-04-03T06:59:52.187Z,62.18
2019-04-03T07:00:54.373Z,61.67
2019-04-03T07:01:52.837Z,61.13
2019-04-03T07:02:52.042Z,61.34
2019-04-03T07:03:51.959Z,61.03
2019-04-03T07:04:51.979Z,60.19
2019-04-03T07:05:52.134Z,60.39
2019-04-03T07:06:52.353Z,60.90
2019-04-03T07:07:51.927Z,60.60
2019-04-03T07:08:51.895Z,59.88
2019-04-03T07:09:51.910Z,59.95
2019-04-03T07:10:55.366Z,59.95
2019-04-03T07:11:51.863Z,59.14
2019-04-03T07:12:51.850Z,59.31
2019-04-03T07:13:53.853Z,59.75
2019-04-03T07:14:51.935Z,58.39
2019-04-03T07:15:51.824Z,58.26
2019-04-03T07:16:51.812Z,58.16
2019-04-03T07:17:51.805Z,57.93
2019-04-03T07:18:51.790Z,58.14
2019-04-03T07:19:51.794Z,58.14
2019-04-03T07:20:52.566Z,57.42
2019-04-03T07:21:53.020Z,57.60
2019-04-03T07:22:51.955Z,57.80
2019-04-03T07:23:51.726Z,57.29
2019-04-03T07:24:51.740Z,56.55
2019-04-03T07:25:51.708Z,56.24
2019-04-03T07:26:51.695Z,55.53
2019-04-03T07:27:51.797Z,55.63
2019-04-03T07:28:51.684Z,55.33
2019-04-03T07:29:51.789Z,55.22
2019-04-03T07:30:53.569Z,55.10
2019-04-03T07:31:52.784Z,55.20
2019-04-03T07:32:51.634Z,55.00
2019-04-03T07:33:51.812Z,54.59
2019-04-03T07:34:51.625Z,55.07
2019-04-03T07:35:51.596Z,53.55
2019-04-03T07:36:51.820Z,55.15
2019-04-03T07:37:52.072Z,53.32
2019-04-03T07:38:51.568Z,54.33
2019-04-03T07:39:51.574Z,53.72
2019-04-03T07:40:52.428Z,53.22
2019-04-03T07:41:53.318Z,53.72
2019-04-03T07:42:51.536Z,53.22
2019-04-03T07:43:51.512Z,54.00
2019-04-03T07:44:51.522Z,53.29
2019-04-03T07:45:51.477Z,53.29
2019-04-03T07:46:51.514Z,53.27
2019-04-03T07:47:51.463Z,53.17
2019-04-03T07:48:51.463Z,52.45
2019-04-03T07:49:51.472Z,51.95
2019-04-03T07:50:51.443Z,53.14
2019-04-03T07:51:51.406Z,52.12
2019-04-03T07:52:51.398Z,52.23
2019-04-03T07:53:51.680Z,51.92
2019-04-03T07:54:52.898Z,50.98
2019-04-03T07:55:51.615Z,50.78
2019-04-03T07:56:51.350Z,50.78
2019-04-03T07:57:51.745Z,50.86
2019-04-03T07:58:51.330Z,51.67
2019-04-03T07:59:51.321Z,50.45
2019-04-03T08:00:51.330Z,50.45
2019-04-03T08:01:51.332Z,51.67
2019-04-03T08:02:51.290Z,50.65
2019-04-03T08:03:52.088Z,50.76
2019-04-03T08:04:51.559Z,50.02
2019-04-03T08:05:51.276Z,50.02
2019-04-03T08:06:51.240Z,49.72
2019-04-03T08:07:51.245Z,49.92
2019-04-03T08:09:05.848Z,50.02
2019-04-03T08:09:52.222Z,50.02
2019-04-03T08:10:51.541Z,49.92
2019-04-03T08:11:51.303Z,50.73
2019-04-03T08:12:51.181Z,50.84
2019-04-03T08:13:51.250Z,50.43
2019-04-03T08:14:51.157Z,49.62
2019-04-03T08:15:51.172Z,50.43
2019-04-03T08:16:51.128Z,49.82
2019-04-03T08:17:51.516Z,50.33
2019-04-03T08:18:51.794Z,50.12
2019-04-03T08:19:53.730Z,49.72
2019-04-03T08:20:51.115Z,50.10
2019-04-03T08:21:51.379Z,50.20
2019-04-03T08:22:51.060Z,50.00
2019-04-03T08:23:51.060Z,49.49
2019-04-03T08:24:53.071Z,50.20
2019-04-03T08:25:54.055Z,49.90
2019-04-03T08:26:52.138Z,49.29
2019-04-03T08:27:51.014Z,49.16
2019-04-03T08:28:50.992Z,48.88
2019-04-03T08:29:51.003Z,48.88
2019-04-03T08:30:51.200Z,49.59
2019-04-03T08:31:50.980Z,49.69
2019-04-03T08:32:50.950Z,48.99
2019-04-03T08:33:50.952Z,48.78
2019-04-03T08:34:51.050Z,48.96
2019-04-03T08:35:50.936Z,49.77
2019-04-03T08:36:50.932Z,48.96
2019-04-03T08:37:51.006Z,49.16
2019-04-03T08:38:50.937Z,48.76
2019-04-03T08:39:51.062Z,48.99
2019-04-03T08:40:52.399Z,49.27
2019-04-03T08:41:51.140Z,49.27
2019-04-03T08:42:50.830Z,49.06
2019-04-03T08:43:50.829Z,48.76
2019-04-03T08:44:50.818Z,48.86
2019-04-03T08:45:50.819Z,48.63
2019-04-03T08:46:50.965Z,49.24
2019-04-03T08:47:50.779Z,48.83
2019-04-03T08:48:50.773Z,48.63
2019-04-03T08:49:50.748Z,50.35
2019-04-03T08:50:50.786Z,49.04
2019-04-03T08:51:50.761Z,48.63
2019-04-03T08:52:50.738Z,48.43
2019-04-03T08:53:53.719Z,48.41
2019-04-03T08:54:50.714Z,49.11
2019-04-03T08:55:50.720Z,48.31
2019-04-03T08:56:50.824Z,48.21
2019-04-03T08:57:52.526Z,48.31
2019-04-03T08:58:50.674Z,48.61
2019-04-03T08:59:50.650Z,48.41
2019-04-03T09:00:50.799Z,48.21
2019-04-03T09:01:50.745Z,48.90
2019-04-03T09:02:50.608Z,47.98
2019-04-03T09:03:50.885Z,48.31
2019-04-03T09:04:50.755Z,48.28
2019-04-03T09:05:51.573Z,47.17
2019-04-03T09:06:51.734Z,47.27
2019-04-03T09:07:50.795Z,47.58
2019-04-03T09:08:50.546Z,47.98
2019-04-03T09:09:50.944Z,48.28
2019-04-03T09:10:50.513Z,46.97
2019-04-03T09:11:50.522Z,47.45
2019-04-03T09:12:50.497Z,48.36
2019-04-03T09:13:50.525Z,47.05
2019-04-03T09:14:50.479Z,47.03
2019-04-03T09:15:50.458Z,47.13
2019-04-03T09:16:50.463Z,46.62
2019-04-03T09:17:50.435Z,46.50
2019-04-03T09:18:50.425Z,45.81
2019-04-03T09:19:50.416Z,44.40
2019-04-03T09:20:50.411Z,44.80
2019-04-03T09:21:51.280Z,44.09
2019-04-03T09:22:53.049Z,44.40
2019-04-03T09:23:50.364Z,44.60
2019-04-03T09:24:50.368Z,45.00
2019-04-03T09:25:50.500Z,44.52
2019-04-03T09:26:50.356Z,43.89
2019-04-03T09:27:50.324Z,44.60
2019-04-03T09:28:50.340Z,44.80
2019-04-03T09:29:50.706Z,44.70
2019-04-03T09:30:50.290Z,44.40
2019-04-03T09:31:51.422Z,44.70
2019-04-03T09:32:53.383Z,44.58
2019-04-03T09:33:50.252Z,45.08
2019-04-03T09:34:50.393Z,44.48
2019-04-03T09:35:50.238Z,43.46
2019-04-03T09:36:50.251Z,43.34
2019-04-03T09:37:50.222Z,43.95
2019-04-03T09:38:50.499Z,44.07
2019-04-03T09:39:50.182Z,43.75
2019-04-03T09:40:50.481Z,42.33
2019-04-03T09:41:50.983Z,43.65
2019-04-03T09:42:51.582Z,43.34
2019-04-03T09:43:50.149Z,43.85
2019-04-03T09:44:50.137Z,43.24
2019-04-03T09:45:50.192Z,42.21
2019-04-03T09:46:50.140Z,42.92
2019-04-03T09:47:50.103Z,42.01
2019-04-03T09:48:50.098Z,42.41
2019-04-03T09:49:50.092Z,42.70
2019-04-03T09:50:50.063Z,43.20
2019-04-03T09:51:52.548Z,43.71
2019-04-03T09:52:50.757Z,41.89
2019-04-03T09:53:50.370Z,41.47
2019-04-03T09:54:50.024Z,40.56
2019-04-03T09:55:50.002Z,41.56
2019-04-03T09:56:59.338Z,41.56
2019-04-03T09:57:52.814Z,41.06
2019-04-03T09:58:49.971Z,41.27
2019-04-03T09:59:49.967Z,40.94
2019-04-03T10:00:49.959Z,40.52
2019-04-03T10:01:50.226Z,39.98
2019-04-03T10:02:51.511Z,38.25
2019-04-03T10:03:49.920Z,38.53
2019-04-03T10:04:49.976Z,38.31
2019-04-03T10:05:49.897Z,37.41
2019-04-03T10:06:49.907Z,36.99
2019-04-03T10:07:49.867Z,36.15
2019-04-03T10:08:49.858Z,34.92
2019-04-03T10:09:49.854Z,35.83
2019-04-03T10:10:50.067Z,34.71
2019-04-03T10:11:51.058Z,33.71
2019-04-03T10:12:49.822Z,34.09
2019-04-03T10:13:49.877Z,34.59
2019-04-03T10:14:49.790Z,33.67
2019-04-03T10:15:49.878Z,33.36
2019-04-03T10:16:49.819Z,32.74
2019-04-03T10:17:49.789Z,34.01
2019-04-03T10:18:49.752Z,32.01
2019-04-03T10:19:49.838Z,31.90
2019-04-03T10:20:49.799Z,30.60
2019-04-03T10:21:51.843Z,31.79
2019-04-03T10:22:49.706Z,31.49
2019-04-03T10:23:49.874Z,31.58
2019-04-03T10:24:49.830Z,32.17
2019-04-03T10:25:52.521Z,30.25
2019-04-03T10:26:49.678Z,30.24
2019-04-03T10:27:49.889Z,29.13
2019-04-03T10:28:49.641Z,30.32
2019-04-03T10:29:50.657Z,29.13
2019-04-03T10:30:51.970Z,29.22
2019-04-03T10:31:49.628Z,29.31
2019-04-03T10:32:49.600Z,28.52
2019-04-03T10:33:49.713Z,28.78
2019-04-03T10:34:49.568Z,28.39
2019-04-03T10:35:49.564Z,28.66
2019-04-03T10:36:49.565Z,28.32
2019-04-03T10:37:49.782Z,27.70
2019-04-03T10:38:49.600Z,27.28
2019-04-03T10:39:51.765Z,26.28
2019-04-03T10:40:49.747Z,25.86
2019-04-03T10:41:49.505Z,25.85
2019-04-03T10:42:49.476Z,24.56
2019-04-03T10:43:49.465Z,24.36
2019-04-03T10:44:49.462Z,24.25
2019-04-03T10:45:49.465Z,24.55
2019-04-03T10:46:49.923Z,25.24
2019-04-03T10:47:49.425Z,23.85
2019-04-03T10:48:49.503Z,25.03
2019-04-03T10:49:49.411Z,24.73
2019-04-03T10:50:49.398Z,24.44
2019-04-03T10:51:49.654Z,24.02
2019-04-03T10:52:49.430Z,23.72
2019-04-03T10:53:51.641Z,24.10
2019-04-03T10:54:49.354Z,23.32
2019-04-03T10:55:49.341Z,23.43
2019-04-03T10:56:49.356Z,24.43
2019-04-03T10:57:49.419Z,24.33
2019-04-03T10:58:50.405Z,24.84
2019-04-03T10:59:53.194Z,24.35
2019-04-03T11:00:50.300Z,24.73
2019-04-03T11:01:49.302Z,24.52
2019-04-03T11:02:49.272Z,24.21
2019-04-03T11:03:49.273Z,23.41
2019-04-03T11:04:49.249Z,24.20
2019-04-03T11:05:49.645Z,23.71
2019-04-03T11:06:49.303Z,23.32
2019-04-03T11:07:49.219Z,24.09
2019-04-03T11:08:49.216Z,22.61
2019-04-03T11:09:49.192Z,23.97
2019-04-03T11:10:49.187Z,23.17
2019-04-03T11:11:49.189Z,22.86
2019-04-03T11:12:49.167Z,22.46
2019-04-03T11:13:49.152Z,22.27
2019-04-03T11:14:49.437Z,21.97
2019-04-03T11:15:49.130Z,20.87
2019-04-03T11:16:49.139Z,21.46
2019-04-03T11:17:49.988Z,21.46
2019-04-03T11:18:58.562Z,21.46
2019-04-03T11:19:50.100Z,21.19
2019-04-03T11:20:49.091Z,22.27
2019-04-03T11:21:49.104Z,21.69
2019-04-03T11:22:49.200Z,21.79
2019-04-03T11:23:49.227Z,22.28
2019-04-03T11:24:49.069Z,21.88
2019-04-03T11:25:49.151Z,22.17
2019-04-03T11:26:50.829Z,21.88
2019-04-03T11:27:49.062Z,21.58
2019-04-03T11:28:49.198Z,20.78
2019-04-03T11:29:49.024Z,20.57
2019-04-03T11:30:49.618Z,20.56
2019-04-03T11:31:49.027Z,20.84
2019-04-03T11:32:48.975Z,20.45
2019-04-03T11:33:51.293Z,20.54
2019-04-03T11:34:49.963Z,18.77
2019-04-03T11:35:48.980Z,19.46
2019-04-03T11:36:48.914Z,20.44
2019-04-03T11:37:48.928Z,20.44
2019-04-03T11:38:48.904Z,19.93
2019-04-03T11:40:01.039Z,19.43
2019-04-03T11:40:50.796Z,18.62
2019-04-03T11:41:48.886Z,18.52
2019-04-03T11:42:48.874Z,18.81
2019-04-03T11:43:48.855Z,19.30
2019-04-03T11:44:49.199Z,18.33
2019-04-03T11:45:48.840Z,18.92
2019-04-03T11:46:48.981Z,19.12
2019-04-03T11:47:48.836Z,18.92
2019-04-03T11:48:49.265Z,19.01
2019-04-03T11:49:51.421Z,19.40
2019-04-03T11:50:48.940Z,18.60
2019-04-03T11:51:48.775Z,19.08
2019-04-03T11:52:51.252Z,18.48
2019-04-03T11:53:49.049Z,17.29
2019-04-03T11:54:48.747Z,17.76
2019-04-03T11:55:48.862Z,16.88
2019-04-03T11:56:49.042Z,16.96
2019-04-03T11:57:49.591Z,17.53
2019-04-03T11:58:49.950Z,17.22
2019-04-03T11:59:49.051Z,16.44
2019-04-03T12:00:48.679Z,15.66
2019-04-03T12:01:48.680Z,15.86
2019-04-03T12:02:48.659Z,17.32
2019-04-03T12:03:50.725Z,16.35
2019-04-03T12:04:48.701Z,15.96
2019-04-03T12:05:48.640Z,15.75
2019-04-03T12:06:49.795Z,16.34
2019-04-03T12:07:48.620Z,16.64
2019-04-03T12:08:48.627Z,16.16
2019-04-03T12:09:48.604Z,16.44
2019-04-03T12:10:48.582Z,16.64
2019-04-03T12:11:48.583Z,16.64
2019-04-03T12:12:48.571Z,15.97
2019-04-03T12:13:48.592Z,15.57
2019-04-03T12:14:49.623Z,16.15
2019-04-03T12:15:52.490Z,15.17
2019-04-03T12:16:48.536Z,15.45
2019-04-03T12:17:48.773Z,15.55
2019-04-03T12:18:48.516Z,15.26
2019-04-03T12:19:48.797Z,14.67
2019-04-03T12:20:49.862Z,15.16
2019-04-03T12:21:50.389Z,15.45
2019-04-03T12:22:48.699Z,16.74
2019-04-03T12:23:48.588Z,15.97
2019-04-03T12:24:48.581Z,16.66
2019-04-03T12:25:48.458Z,17.07
2019-04-03T12:26:50.473Z,16.88
2019-04-03T12:27:49.314Z,17.18
2019-04-03T12:28:50.021Z,17.76
2019-04-03T12:29:48.875Z,17.27
2019-04-03T12:30:48.416Z,17.39
2019-04-03T12:31:48.393Z,17.50
2019-04-03T12:32:50.172Z,18.41
2019-04-03T12:33:54.927Z,18.63
2019-04-03T12:34:49.680Z,18.84
2019-04-03T12:35:48.418Z,18.77
2019-04-03T12:36:48.335Z,19.87
2019-04-03T12:37:50.143Z,21.55
2019-04-03T12:38:48.321Z,21.46
2019-04-03T12:39:48.375Z,21.57
2019-04-03T12:40:48.312Z,21.59
2019-04-03T12:41:48.298Z,21.71
2019-04-03T12:42:48.277Z,23.22
2019-04-03T12:43:49.960Z,23.03
2019-04-03T12:44:48.785Z,23.03
2019-04-03T12:45:48.257Z,22.63
2019-04-03T12:46:48.244Z,22.63
2019-04-03T12:47:48.239Z,23.32
2019-04-03T12:48:50.860Z,23.22
2019-04-03T12:49:48.229Z,22.93
2019-04-03T12:50:48.215Z,23.33
2019-04-03T12:51:48.183Z,22.93
2019-04-03T12:52:48.448Z,24.02